Tiempo atmosférico en la estación meteorológica de Alforja, Tarragona (406 m.)



Fecha
DESCASC
Temp. máxima en grados centígrados (hora)
DESCASC
Temp. mínima en grados centígrados (hora)
DESCASC
Temp. media en grados centígrados
DESCASC
Racha de viento máxima en m/sg (hora)
DESCASC
Velocidad máxima media en intervalos de 10 minutos(hora)
DESCASC
Precipitaciones diarias en mm
DESCASC
Precipitaciones de 00:00 a 06:00 en mm
DESCASC
Precipitaciones de 06:00 a 12:00 en mm
DESCASC
Precipitaciones de 12:00 a 18:00 en mm
DESCASC
Precipitaciones de 18:00 a 24:00 en mm
DESCASC
18-01-2018 13.9 (15:40) 4.5 (07:10) 9.2 11.39 (04:30) 6.39 (10:00) 0 0 0 0 0
17-01-2018 13.6 (14:10) 6.5 (23:50) 10.1 23.89 (08:30) 11.11 (14:20) 0 0 0 0 0
16-01-2018 15.8 (15:30) 6.7 (07:50) 11.3 23.06 (04:30) 11.11 (04:30) 0 0 0 0 0
15-01-2018 9.6 (15:20) 3.1 (08:20) 6.4 12.5 (12:40) 7.78 (13:30) 0 0 0 0 0
14-01-2018 8.3 (15:40) 3.8 (00:00) 6.1 14.44 (13:30) 7.78 (06:40) 0 0 0 0 0
13-01-2018 9.7 (15:30) 1.4 (00:00) 5.5 4.17 (18:00) 3.06 (04:50) 0 0 0 0 0
12-01-2018 10.8 (15:30) 2.3 (00:00) 6.6 15.56 (11:30) 9.17 (10:30) 0 0 0 0 0
11-01-2018 9.5 (15:00) 4.6 (00:00) 7 15.83 (04:10) 8.89 (15:20) 0 0 0 0 0
10-01-2018 11.1 (13:50) 4.5 (00:00) 7.8 13.61 (16:30) 8.06 (15:40) 0 0 0 0 0
09-01-2018 -- (--) -- (--) -- -- (--) -- (--) -- 0 -- 0 0
08-01-2018 8.6 (14:00) 1.6 (00:00) 5.1 13.33 (14:40) 8.33 (12:20) 0 0 0 0 0
07-01-2018 11.1 (00:30) 2.3 (00:00) 6.7 16.39 (02:50) 5.28 (01:00) 11 11 0 0 0
06-01-2018 12.3 (14:20) 4.6 (00:00) 8.5 13.33 (21:00) 5.83 (21:00) 2.8 0 0 0 2.8
05-01-2018 16.3 (14:20) 6.3 (00:00) 11.3 18.61 (12:30) 9.44 (11:00) 0 0 0 0 0
04-01-2018 18.6 (14:20) 13.4 (23:59) 16 18.06 (11:00) 10 (13:20) 0 0 0 0 0
03-01-2018 18.9 (15:30) 12.9 (00:00) 15.9 18.33 (16:10) 8.33 (00:20) 0 0 0 0 0
02-01-2018 15.9 (14:20) 10.5 (00:00) 13.2 21.39 (02:00) 11.67 (02:30) 0 0 0 0 0
01-01-2018 13.1 (15:00) 5.5 (00:00) 9.3 20.83 (02:50) 10 (00:40) 0 0 0 0 0
31-12-2017 16.1 (14:00) 8.2 (00:00) 12.2 20.83 (23:59) 9.72 (23:59) 0 0 0 0 0
30-12-2017 17.6 (14:10) 10.3 (00:00) 14 16.67 (15:40) 8.89 (13:40) 0 0 0 0 0
29-12-2017 13.1 (16:40) 8.2 (00:00) 10.7 17.5 (00:30) 8.89 (01:20) 0 0 0 0 0
28-12-2017 11.8 (13:30) 5.3 (00:00) 8.6 19.44 (01:50) 9.44 (02:40) 0 0 0 0 0
27-12-2017 10.2 (14:10) 4.7 (00:00) 7.4 25 (17:30) 10.28 (14:20) 5.2 5 0.2 0 0
26-12-2017 9.1 (11:50) 4.7 (00:00) 6.9 9.72 (13:20) 6.67 (13:20) 0 0 0 0 0
25-12-2017 12.3 (16:20) 2.6 (00:00) 7.5 6.39 (16:00) 3.06 (22:40) 0 0 0 0 0
24-12-2017 16.2 (14:30) 3.4 (00:00) 9.8 8.33 (08:30) 5 (08:50) 0 0 0 0 0
23-12-2017 12 (14:20) 6.1 (00:00) 9 13.06 (05:30) 7.22 (07:40) 0 0 0 0 0
22-12-2017 11.8 (15:40) 6.7 (00:00) 9.3 16.11 (11:30) 9.44 (08:00) 0 0 0 0 0

Gráficas

Temp. máximas Temp. mínimas Temp. medias Precipitaciones Rachas de viento máximas Velocidades máximas media en intervalos de 10 minutos

Datos horarios

Fecha y hora oficial Temperatura (ºC) Velocidad del viento (km/h) Dirección del viento Racha (km/h) Dirección de racha Precipitación (mm) Presión (hPa) Tendencia (hPa) Humedad (%)
2018-01-20 23:00:00 13.1 18 Oeste 49 Oeste 0 -- -- 67
2018-01-20 22:00:00 13.3 24 Oeste 61 Oeste 0 -- -- 67
2018-01-20 21:00:00 12.9 23 Oeste 47 Oeste 0 -- -- 66
2018-01-20 20:00:00 12.7 17 Oeste 56 Oeste 0 -- -- 61
2018-01-20 19:00:00 12.9 24 Oeste 54 Oeste 0 -- -- 56
2018-01-20 18:00:00 13.2 22 Oeste 45 Sudoeste 0 -- -- 51
2018-01-20 17:00:00 14.5 26 Oeste 52 Oeste 0 -- -- 46
2018-01-20 16:00:00 15.2 25 Oeste 54 Oeste 0 -- -- 42
2018-01-20 15:00:00 15.2 19 Oeste 45 Sudoeste 0 -- -- 40
2018-01-20 14:00:00 14.8 20 Sudoeste 42 Sudoeste 0 -- -- 41
2018-01-20 13:00:00 13.2 17 Sudoeste 41 Oeste 0 -- -- 52
2018-01-20 12:00:00 10.9 22 Sudoeste 41 Oeste 0 -- -- 63
2018-01-20 11:00:00 9.2 22 Oeste 44 Oeste 0 -- -- 69
2018-01-20 10:00:00 9.4 28 Oeste 51 Oeste 0 -- -- 65
2018-01-20 09:00:00 7.9 23 Oeste 49 Oeste 0 -- -- 71
2018-01-20 08:00:00 7.4 27 Oeste 46 Oeste 0 -- -- 72
2018-01-20 07:00:00 6.7 23 Oeste 53 Oeste 0 -- -- 77
2018-01-20 06:00:00 6.9 28 Oeste 47 Oeste 0 -- -- 75
2018-01-20 05:00:00 7.4 31 Oeste 55 Oeste 0 -- -- 72
2018-01-20 04:00:00 7.5 27 Oeste 56 Oeste 0 -- -- 72
2018-01-20 03:00:00 7.7 36 Oeste 53 Oeste 0 -- -- 72
2018-01-20 02:00:00 7.6 26 Oeste 45 Oeste 0 -- -- 75
2018-01-20 01:00:00 7.4 24 Oeste 52 Oeste 0 -- -- 76
2018-01-20 00:00:00 7.8 30 Oeste 47 Oeste 0 -- -- 72
2018-01-19 23:00:00 8.2 24 Oeste 44 Oeste 0 -- -- 69
2018-01-19 22:00:00 9.2 23 Oeste 46 Oeste 0 -- -- 62
2018-01-19 21:00:00 10.4 26 Oeste 49 Oeste 0 -- -- 60
2018-01-19 20:00:00 11.6 23 Noroeste 38 Oeste 0 -- -- 59
2018-01-19 19:00:00 12 15 Oeste 33 Oeste 0 -- -- 57
2018-01-19 18:00:00 12.8 14 Oeste 39 Oeste 0 -- -- 55
2018-01-19 17:00:00 14.5 21 Oeste 41 Oeste 0 -- -- 54
2018-01-19 16:00:00 14.8 23 Oeste 41 Oeste 0 -- -- 55
2018-01-19 15:00:00 14.4 21 Oeste 39 Oeste 0 -- -- 57
2018-01-19 14:00:00 13.7 17 Oeste 51 Oeste 0 -- -- 60
2018-01-19 13:00:00 10.6 22 Oeste 38 Oeste 0 -- -- 73
2018-01-19 12:00:00 8 28 Oeste 41 Oeste 0 -- -- 81
2018-01-19 11:00:00 7.9 23 Oeste 40 Oeste 0 -- -- 82
2018-01-19 10:00:00 7.5 18 Noroeste 41 Oeste 0 -- -- 83
2018-01-19 09:00:00 7.4 19 Noroeste 39 Oeste 0 -- -- 83
2018-01-19 08:00:00 7.7 21 Oeste 38 Oeste 0 -- -- 80
2018-01-19 07:00:00 6.9 26 Oeste 48 Noroeste 0 -- -- 80
2018-01-19 06:00:00 7.3 27 Oeste 49 Oeste 0 -- -- 77
2018-01-19 05:00:00 7.5 23 Oeste 42 Oeste 0 -- -- 74
2018-01-19 04:00:00 7.4 27 Noroeste 45 Oeste 0 -- -- 71
2018-01-19 03:00:00 8.9 28 Oeste 43 Oeste 0 -- -- 64
2018-01-19 02:00:00 9.6 26 Oeste 42 Oeste 0 -- -- 59
2018-01-19 01:00:00 9.2 23 Oeste 35 Oeste 0 -- -- 61
2018-01-19 00:00:00 5.4 0 Calma 12 Sudoeste 0 -- -- 75
2018-01-18 23:00:00 6.8 10 Oeste 17 Noroeste 0 -- -- 71
2018-01-18 22:00:00 4.8 2 Sudoeste 7 Noroeste 0 -- -- 78
2018-01-18 21:00:00 5.8 2 Oeste 8 Norte 0 -- -- 72
2018-01-18 20:00:00 9 3 Sudeste 23 Noroeste 0 -- -- 61
2018-01-18 19:00:00 10.4 12 Noroeste 26 Noroeste 0 -- -- 57
2018-01-18 18:00:00 10.9 10 Noroeste 21 Oeste 0 -- -- 53
2018-01-18 17:00:00 13.2 9 Oeste 24 Sudoeste 0 -- -- 45
2018-01-18 16:00:00 13.9 14 Oeste 28 Oeste 0 -- -- 46
2018-01-18 15:00:00 13.5 15 Oeste 32 Oeste 0 -- -- 49
2018-01-18 14:00:00 13 15 Oeste 30 Oeste 0 -- -- 51
2018-01-18 13:00:00 11.9 15 Oeste 30 Oeste 0 -- -- 55
2018-01-18 12:00:00 10.5 18 Oeste 36 Oeste 0 -- -- 62
2018-01-18 11:00:00 9.4 15 Oeste 31 Oeste 0 -- -- 65
2018-01-18 10:00:00 7.3 23 Oeste 36 Oeste 0 -- -- 73
2018-01-18 09:00:00 5.5 19 Oeste 35 Oeste 0 -- -- 80
2018-01-18 08:00:00 4.8 18 Oeste 32 Oeste 0 -- -- 83
2018-01-18 07:00:00 4.6 17 Oeste 35 Oeste 0 -- -- 84
2018-01-18 06:00:00 5.2 21 Oeste 35 Oeste 0 -- -- 83
2018-01-18 05:00:00 5.4 21 Oeste 41 Oeste 0 -- -- 81
2018-01-18 04:00:00 5.6 18 Oeste 38 Oeste 0 -- -- 81
2018-01-18 03:00:00 5.9 22 Oeste 33 Oeste 0 -- -- 80
2018-01-18 02:00:00 6.1 15 Oeste 40 Oeste 0 -- -- 79
2018-01-18 01:00:00 6.1 17 Oeste 30 Noroeste 0 -- -- 78
2018-01-18 00:00:00 6.6 14 Oeste 30 Oeste 0 -- -- 76
2018-01-17 23:00:00 6.8 7 Oeste 30 Noroeste 0 -- -- 74
2018-01-17 22:00:00 7.4 9 Oeste 37 Oeste 0 -- -- 73
2018-01-17 21:00:00 8 21 Oeste 45 Sudoeste 0 -- -- 71
2018-01-17 20:00:00 8.9 27 Oeste 63 Oeste 0 -- -- 67
2018-01-17 19:00:00 9.4 29 Oeste 56 Oeste 0 -- -- 62
2018-01-17 18:00:00 10.2 36 Oeste 57 Oeste 0 -- -- 60
2018-01-17 17:00:00 11.5 35 Oeste 63 Oeste 0 -- -- 54
2018-01-17 16:00:00 12.7 32 Oeste 66 Oeste 0 -- -- 50
2018-01-17 15:00:00 13.2 38 Oeste 67 Oeste 0 -- -- 50
2018-01-17 14:00:00 13.2 36 Noroeste 65 Oeste 0 -- -- 52
2018-01-17 13:00:00 13.1 36 Oeste 69 Oeste 0 -- -- 52
2018-01-17 12:00:00 13.5 31 Oeste 61 Sudoeste 0 -- -- 49
2018-01-17 11:00:00 12.7 32 Oeste 62 Oeste 0 -- -- 55
2018-01-17 10:00:00 12 30 Oeste 64 Sudoeste 0 -- -- 58
2018-01-17 09:00:00 11.2 31 Sudoeste 86 Oeste 0 -- -- 61
2018-01-17 08:00:00 11.5 26 Sudoeste 83 Sudoeste 0 -- -- 62
2018-01-17 07:00:00 11.9 32 Sudoeste 69 Sudoeste 0 -- -- 60
2018-01-17 06:00:00 11 30 Sudoeste 73 Sudoeste 0 -- -- 71
2018-01-17 05:00:00 11.2 28 Oeste 55 Sudoeste 0 -- -- 72
2018-01-17 04:00:00 11.2 25 Oeste 59 Oeste 0 -- -- 72
2018-01-17 03:00:00 11 27 Oeste 56 Oeste 0 -- -- 73
2018-01-17 02:00:00 11.2 30 Oeste 64 Oeste 0 -- -- 72
2018-01-17 01:00:00 11.7 27 Oeste 59 Sudoeste 0 -- -- 71
2018-01-17 00:00:00 11.3 26 Oeste 47 Oeste 0 -- -- 73
2018-01-16 23:00:00 11.5 26 Oeste 49 Oeste 0 -- -- 72
2018-01-16 22:00:00 11.7 25 Oeste 48 Oeste 0 -- -- 71
2018-01-16 21:00:00 12.1 24 Oeste 49 Oeste 0 -- -- 69
2018-01-16 20:00:00 12.6 23 Oeste 46 Oeste 0 -- -- 67
2018-01-16 19:00:00 13.3 27 Oeste 50 Oeste 0 -- -- 64
2018-01-16 18:00:00 13.6 26 Oeste 56 Oeste 0 -- -- 63
2018-01-16 17:00:00 14.7 27 Oeste 57 Oeste 0 -- -- 59
2018-01-16 16:00:00 15.8 32 Oeste 56 Oeste 0 -- -- 56
2018-01-16 15:00:00 15.7 27 Oeste 55 Oeste 0 -- -- 56
2018-01-16 14:00:00 14.9 28 Oeste 58 Oeste 0 -- -- 57
2018-01-16 13:00:00 13.5 34 Oeste 71 Oeste 0 -- -- 58
2018-01-16 12:00:00 12.3 36 Oeste 61 Oeste 0 -- -- 60
2018-01-16 11:00:00 10.4 35 Oeste 60 Oeste 0 -- -- 63
2018-01-16 10:00:00 8.5 37 Oeste 57 Oeste 0 -- -- 68
2018-01-16 09:00:00 7.3 28 Oeste 55 Oeste 0 -- -- 69
2018-01-16 08:00:00 6.7 26 Oeste 54 Oeste 0 -- -- 68
2018-01-16 07:00:00 7.4 30 Oeste 59 Oeste 0 -- -- 65
2018-01-16 06:00:00 8.3 32 Oeste 61 Oeste 0 -- -- 60
2018-01-16 05:00:00 8.7 33 Noroeste 83 Oeste 0 -- -- 57
2018-01-16 04:00:00 8.5 33 Oeste 58 Oeste 0 -- -- 58
2018-01-16 03:00:00 8.3 31 Oeste 58 Oeste 0 -- -- 59
2018-01-16 02:00:00 8.1 26 Oeste 53 Oeste 0 -- -- 60
2018-01-16 01:00:00 7.5 19 Oeste 36 Oeste 0 -- -- 65
2018-01-16 00:00:00 7.9 17 Oeste 41 Oeste 0 -- -- 64
2018-01-15 23:00:00 7.6 18 Oeste 38 Oeste 0 -- -- 64
2018-01-15 22:00:00 7.8 25 Oeste 43 Oeste 0 -- -- 63
2018-01-15 21:00:00 7.5 16 Oeste 30 Oeste 0 -- -- 68
2018-01-15 20:00:00 7.4 13 Oeste 34 Oeste 0 -- -- 72
2018-01-15 19:00:00 7.7 17 Oeste 38 Oeste 0 -- -- 71
2018-01-15 18:00:00 7.6 13 Oeste 32 Oeste 0 -- -- 72
2018-01-15 17:00:00 8.3 20 Oeste 40 Oeste 0 -- -- 69
2018-01-15 16:00:00 9.1 23 Oeste 41 Oeste 0 -- -- 65
2018-01-15 15:00:00 9.3 23 Oeste 39 Oeste 0 -- -- 64
2018-01-15 14:00:00 9 19 Oeste 43 Oeste 0 -- -- 67
2018-01-15 13:00:00 8 26 Oeste 45 Oeste 0 -- -- 70
2018-01-15 12:00:00 7.2 25 Oeste 42 Oeste 0 -- -- 73
2018-01-15 11:00:00 5.8 23 Oeste 38 Oeste 0 -- -- 79
2018-01-15 10:00:00 4.8 18 Oeste 32 Oeste 0 -- -- 84
2018-01-15 09:00:00 3.6 20 Oeste 38 Oeste 0 -- -- 89
2018-01-15 08:00:00 3.4 18 Oeste 38 Oeste 0 -- -- 89
2018-01-15 07:00:00 3.6 20 Oeste 40 Oeste 0 -- -- 89
2018-01-15 06:00:00 3.6 21 Oeste 37 Oeste 0 -- -- 89
2018-01-15 05:00:00 3.8 21 Oeste 38 Oeste 0 -- -- 89
2018-01-15 04:00:00 4 17 Oeste 32 Oeste 0 -- -- 88
2018-01-15 03:00:00 4.4 15 Sudoeste 37 Oeste 0 -- -- 86
2018-01-15 02:00:00 5 22 Oeste 38 Oeste 0 -- -- 84
2018-01-15 01:00:00 5.4 19 Oeste 33 Oeste 0 -- -- 83
2018-01-15 00:00:00 5.7 15 Oeste 36 Oeste 0 -- -- 81
2018-01-14 23:00:00 5.8 17 Oeste 40 Oeste 0 -- -- 81
2018-01-14 22:00:00 6.2 26 Oeste 39 Oeste 0 -- -- 79
2018-01-14 21:00:00 6.1 19 Oeste 36 Noroeste 0 -- -- 79
2018-01-14 20:00:00 6.3 12 Oeste 44 Oeste 0 -- -- 78
2018-01-14 19:00:00 6.5 18 Oeste 35 Oeste 0 -- -- 76
2018-01-14 18:00:00 6.9 17 Oeste 34 Oeste 0 -- -- 75
2018-01-14 17:00:00 7.4 15 Oeste 36 Oeste 0 -- -- 76
2018-01-14 16:00:00 8.3 18 Oeste 42 Oeste 0 -- -- 71
2018-01-14 15:00:00 7.6 25 Oeste 48 Oeste 0 -- -- 73
2018-01-14 14:00:00 6.7 25 Oeste 52 Oeste 0 -- -- 76
2018-01-14 13:00:00 6.4 26 Oeste 42 Oeste 0 -- -- 80
2018-01-14 12:00:00 6 19 Oeste 48 Oeste 0 -- -- 80
2018-01-14 11:00:00 5.6 19 Oeste 47 Oeste 0 -- -- 82
2018-01-14 10:00:00 5.5 27 Oeste 45 Oeste 0 -- -- 82
2018-01-14 09:00:00 4.6 19 Oeste 38 Oeste 0 -- -- 87
2018-01-14 08:00:00 4 19 Oeste 39 Oeste 0 -- -- 90
2018-01-14 07:00:00 4.1 25 Oeste 46 Oeste 0 -- -- 90
2018-01-14 06:00:00 4.4 28 Oeste 49 Oeste 0 -- -- 88
2018-01-14 05:00:00 4.9 26 Oeste 48 Oeste 0 -- -- 86
2018-01-14 04:00:00 5.5 20 Oeste 38 Noroeste 0 -- -- 82
2018-01-14 03:00:00 5.8 22 Oeste 36 Oeste 0 -- -- 82
2018-01-14 02:00:00 5.7 12 Oeste 27 Noroeste 0 -- -- 84
2018-01-14 01:00:00 6.4 12 Oeste 27 Oeste 0 -- -- 86
2018-01-14 00:00:00 7.1 8 Oeste 15 Oeste 0 -- -- 80
2018-01-13 23:00:00 7.2 3 Oeste 12 Oeste 0 -- -- 89
2018-01-13 22:00:00 6.4 4 Oeste 11 Nordeste 0 -- -- 91
2018-01-13 21:00:00 7.3 2 Este 12 Norte 0 -- -- 89
2018-01-13 20:00:00 6.9 4 Nordeste 14 Este 0 -- -- 89
2018-01-13 19:00:00 8 5 Este 12 Este 0 -- -- 90
2018-01-13 18:00:00 8.7 5 Este 15 Este 0 -- -- 86
2018-01-13 17:00:00 9.1 4 Este 12 Este 0 -- -- 82
2018-01-13 16:00:00 9.5 5 Sudeste 14 Este 0 -- -- 82
2018-01-13 15:00:00 9.6 5 Este 14 Este 0 -- -- 79
2018-01-13 14:00:00 9.4 7 Este 14 Nordeste 0 -- -- 77
2018-01-13 13:00:00 9.4 6 Este 13 Sudeste 0 -- -- 79
2018-01-13 12:00:00 8.7 4 Nordeste 10 Nordeste 0 -- -- 79
2018-01-13 11:00:00 8.3 4 Este 10 Este 0 -- -- 77
2018-01-13 10:00:00 5.7 0 Calma 5 Sudoeste 0 -- -- 95
2018-01-13 09:00:00 2.6 8 Oeste 11 Sudoeste 0 -- -- 97
2018-01-13 08:00:00 1.8 7 Oeste 13 Sudoeste 0 -- -- 95
2018-01-13 07:00:00 1.7 4 Sudoeste 13 Oeste 0 -- -- 92
2018-01-13 06:00:00 2.5 8 Oeste 15 Oeste 0 -- -- 94
2018-01-13 05:00:00 2.8 10 Oeste 14 Oeste 0 -- -- 93
2018-01-13 04:00:00 2.2 10 Oeste 13 Sudoeste 0 -- -- 95
2018-01-13 03:00:00 2 5 Oeste 14 Oeste 0 -- -- 95
2018-01-13 02:00:00 2.3 4 Oeste 12 Oeste 0 -- -- 93
2018-01-13 01:00:00 2.4 6 Oeste 13 Sudoeste 0 -- -- 93
2018-01-13 00:00:00 2.3 4 Oeste 9 Sudoeste 0 -- -- 90
2018-01-12 23:00:00 4.2 5 Noroeste 12 Sudoeste 0 -- -- 86
2018-01-12 22:00:00 5 7 Sudoeste 15 Sudoeste 0 -- -- 82
2018-01-12 21:00:00 5.7 11 Sudoeste 19 Oeste 0 -- -- 81
2018-01-12 20:00:00 7.1 9 Oeste 19 Noroeste 0 -- -- 75
2018-01-12 19:00:00 7.4 11 Noroeste 23 Oeste 0 -- -- 74
2018-01-12 18:00:00 7.8 14 Oeste 27 Oeste 0 -- -- 72
2018-01-12 17:00:00 9.6 20 Oeste 38 Oeste 0 -- -- 63
2018-01-12 16:00:00 10.4 24 Oeste 42 Oeste 0 -- -- 61
2018-01-12 15:00:00 10.4 21 Oeste 41 Oeste 0 -- -- 58
2018-01-12 14:00:00 10.2 23 Oeste 39 Sudoeste 0 -- -- 60
2018-01-12 13:00:00 10.3 15 Sudoeste 34 Oeste 0 -- -- 59
2018-01-12 12:00:00 8.8 19 Oeste 56 Oeste 0 -- -- 63
2018-01-12 11:00:00 6.9 23 Noroeste 51 Oeste 0 -- -- 73
2018-01-12 10:00:00 5.3 28 Oeste 50 Noroeste 0 -- -- 81
2018-01-12 09:00:00 3.5 26 Oeste 50 Oeste 0 -- -- 88
2018-01-12 08:00:00 3 28 Oeste 53 Oeste 0 -- -- 89
2018-01-12 07:00:00 3 30 Oeste 50 Oeste 0 -- -- 89
2018-01-12 06:00:00 3.3 27 Oeste 44 Noroeste 0 -- -- 85
2018-01-12 05:00:00 3.4 30 Noroeste 50 Oeste 0 -- -- 87
2018-01-12 04:00:00 3.5 31 Oeste 50 Oeste 0 -- -- 86
2018-01-12 03:00:00 3.9 27 Oeste 49 Oeste 0 -- -- 84
2018-01-12 02:00:00 4.3 29 Oeste 48 Oeste 0 -- -- 83
2018-01-12 01:00:00 4.6 23 Oeste 44 Oeste 0 -- -- 81
2018-01-12 00:00:00 4.9 27 Oeste 54 Oeste 0 -- -- 80
2018-01-11 23:00:00 5.1 27 Oeste 46 Oeste 0 -- -- 77
2018-01-11 22:00:00 5.5 30 Oeste 49 Oeste 0 -- -- 74
2018-01-11 21:00:00 5.5 27 Oeste 47 Oeste 0 -- -- 72
2018-01-11 20:00:00 5.9 28 Oeste 48 Oeste 0 -- -- 70
2018-01-11 19:00:00 6.6 28 Oeste 52 Noroeste 0 -- -- 67
2018-01-11 18:00:00 7.6 24 Oeste 48 Noroeste 0 -- -- 63
2018-01-11 17:00:00 8.3 27 Oeste 51 Oeste 0 -- -- 59
2018-01-11 16:00:00 8.9 28 Oeste 53 Oeste 0 -- -- 56
2018-01-11 15:00:00 9.5 27 Oeste 51 Oeste 0 -- -- 54
2018-01-11 14:00:00 8.3 28 Oeste 54 Oeste 0 -- -- 57
2018-01-11 13:00:00 7.5 24 Oeste 50 Oeste 0 -- -- 61
2018-01-11 12:00:00 7.6 28 Oeste 47 Oeste 0 -- -- 62
2018-01-11 11:00:00 6.6 30 Oeste 57 Oeste 0 -- -- 64
2018-01-11 10:00:00 6.5 26 Oeste 49 Oeste 0 -- -- 63
2018-01-11 09:00:00 6 19 Oeste 51 Noroeste 0 -- -- 66
2018-01-11 08:00:00 5.5 27 Oeste 53 Oeste 0 -- -- 67
2018-01-11 07:00:00 4.7 20 Oeste 39 Sudoeste 0 -- -- 71
2018-01-11 06:00:00 4.8 17 Oeste 38 Oeste 0 -- -- 73
2018-01-11 05:00:00 5.4 17 Oeste 57 Oeste 0 -- -- 70
2018-01-11 04:00:00 6.3 30 Oeste 55 Oeste 0 -- -- 64
2018-01-11 03:00:00 6.3 26 Oeste 48 Oeste 0 -- -- 67
2018-01-11 02:00:00 7.2 28 Oeste 53 Oeste 0 -- -- 63
2018-01-11 01:00:00 7.6 22 Oeste 44 Oeste 0 -- -- 70
2018-01-11 00:00:00 8.5 16 Oeste 33 Oeste 0 -- -- 68
2018-01-10 23:00:00 9 10 Oeste 26 Oeste 0 -- -- 66
2018-01-10 22:00:00 8.7 15 Oeste 30 Oeste 0 -- -- 67
2018-01-10 21:00:00 8.4 11 Oeste 22 Sudoeste 0 -- -- 71
2018-01-10 20:00:00 8.3 8 Oeste 20 Oeste 0 -- -- 72
2018-01-10 19:00:00 8.4 8 Oeste 27 Oeste 0 -- -- 70
2018-01-10 18:00:00 8.9 12 Oeste 35 Oeste 0 -- -- 69
2018-01-10 17:00:00 10.2 16 Oeste 49 Oeste 0 -- -- 64
2018-01-10 16:00:00 10.9 27 Oeste 46 Sudoeste 0 -- -- 61
2018-01-10 15:00:00 11 21 Oeste 41 Sudoeste 0 -- -- 60
2018-01-10 14:00:00 11 25 Oeste 45 Oeste 0 -- -- 61
2018-01-10 13:00:00 10.7 23 Oeste 43 Oeste 0 -- -- 61
2018-01-10 12:00:00 10.4 17 Oeste 33 Oeste 0 -- -- 62
2018-01-10 11:00:00 8.7 17 Noroeste 33 Oeste 0 -- -- 67
2018-01-10 10:00:00 7.1 19 Oeste 32 Oeste 0 -- -- 71
2018-01-10 09:00:00 5.4 12 Oeste 22 Oeste 0 -- -- 75
2018-01-10 08:00:00 5.4 8 Oeste 16 Norte 0 -- -- 73
2018-01-10 07:00:00 6.1 7 Noroeste 19 Oeste 0 -- -- 71
2018-01-10 06:00:00 5.7 10 Oeste 23 Oeste 0 -- -- 73
2018-01-10 05:00:00 6 9 Oeste 19 Oeste 0 -- -- 72
2018-01-10 04:00:00 6 13 Oeste 22 Oeste 0 -- -- 71
2018-01-10 03:00:00 6.3 12 Oeste 19 Oeste 0 -- -- 68
2018-01-10 02:00:00 7.2 11 Oeste 23 Noroeste 0 -- -- 63
2018-01-10 01:00:00 6.4 8 Oeste 18 Sudoeste 0 -- -- 63
2018-01-10 00:00:00 5 7 Oeste 14 Oeste 0 -- -- 66
2018-01-09 23:00:00 6.1 6 Sudoeste 13 Oeste 0 -- -- 61
2018-01-09 22:00:00 4.6 8 Sudoeste 13 Oeste 0 -- -- 66
2018-01-09 21:00:00 4.5 9 Sudoeste 12 Oeste 0 -- -- 65
2018-01-09 20:00:00 5.1 8 Oeste 13 Oeste 0 -- -- 61
2018-01-09 19:00:00 5.1 8 Oeste 14 Oeste 0 -- -- 61
2018-01-09 18:00:00 7.9 4 Oeste 21 Noroeste 0 -- -- 50
2018-01-09 17:00:00 9.2 8 Oeste 19 Oeste 0 -- -- 48
2018-01-09 16:00:00 10.4 10 Oeste 21 Oeste 0 -- -- 52
2018-01-09 15:00:00 11.4 10 Oeste 20 Oeste 0 -- -- 50
2018-01-09 14:00:00 11.8 14 Oeste 22 Oeste 0 -- -- 43
2018-01-09 13:00:00 12.2 10 Sudoeste 19 Sudoeste 0 -- -- 43
2018-01-09 12:00:00 11.2 9 Oeste -- -- -- -- -- 45
2018-01-09 11:00:00 -- -- -- -- -- -- -- -- --
2018-01-09 10:00:00 8.1 8 Oeste 17 Sudoeste 0 -- -- 53
2018-01-09 09:00:00 5 9 Sudoeste 26 Oeste 0 -- -- 62
2018-01-09 08:00:00 3.6 17 Oeste 23 Oeste 0 -- -- 69
2018-01-09 07:00:00 3.6 8 Sudoeste 24 Oeste 0 -- -- 69
2018-01-09 06:00:00 4.7 15 Oeste 26 Oeste 0 -- -- 62
2018-01-09 05:00:00 5 13 Oeste 39 Oeste 0 -- -- 64
2018-01-09 04:00:00 4.7 24 Oeste 40 Oeste 0 -- -- 69
2018-01-09 03:00:00 4.5 13 Oeste 35 Oeste 0 -- -- 70
2018-01-09 02:00:00 4.7 17 Noroeste 36 Noroeste 0 -- -- 68
2018-01-09 01:00:00 5 18 Noroeste 34 Oeste 0 -- -- 70
2018-01-09 00:00:00 4.8 20 Oeste 43 Oeste 0 -- -- 77
2018-01-08 23:00:00 5.1 20 Noroeste 37 Oeste 0 -- -- 72
2018-01-08 22:00:00 5.3 17 Oeste 37 Oeste 0 -- -- 62
2018-01-08 21:00:00 4.8 19 Noroeste 32 Oeste 0 -- -- 74
2018-01-08 20:00:00 4.8 18 Noroeste 35 Noroeste 0 -- -- 78
2018-01-08 19:00:00 4.6 21 Noroeste 31 Noroeste 0 -- -- 86
2018-01-08 18:00:00 5.1 16 Oeste 36 Oeste 0 -- -- 85
2018-01-08 17:00:00 6.4 19 Oeste 41 Oeste 0 -- -- 76
2018-01-08 16:00:00 7.4 22 Noroeste 45 Noroeste 0 -- -- 72
2018-01-08 15:00:00 7.9 24 Noroeste 48 Noroeste 0 -- -- 69
2018-01-08 14:00:00 8.6 23 Noroeste 42 Noroeste 0 -- -- 67
2018-01-08 13:00:00 8 27 Noroeste 46 Noroeste 0 -- -- 71
2018-01-08 12:00:00 7.8 26 Noroeste 42 Oeste 0 -- -- 72
2018-01-08 11:00:00 6.2 23 Noroeste 45 Noroeste 0 -- -- 76
2018-01-08 10:00:00 5.7 23 Noroeste 39 Noroeste 0 -- -- 77
2018-01-08 09:00:00 3.7 18 Oeste 31 Noroeste 0 -- -- 84
2018-01-08 08:00:00 3.1 14 Sudoeste 28 Sudoeste 0 -- -- 90
2018-01-08 07:00:00 3 16 Sudoeste 24 Sudoeste 0 -- -- 90
2018-01-08 06:00:00 2.4 12 Sudoeste 16 Oeste 0 -- -- 85
2018-01-08 05:00:00 2 9 Oeste 16 Sudoeste 0 -- -- 84
2018-01-08 04:00:00 2.4 12 Sudoeste 17 Sudoeste 0 -- -- 89
2018-01-08 03:00:00 2 3 Noroeste 8 Sudoeste 0 -- -- 89
2018-01-08 02:00:00 2.9 3 Oeste 12 Oeste 0 -- -- 85
2018-01-08 01:00:00 4.8 7 Oeste 22 Oeste 0 -- -- 81
2018-01-08 00:00:00 4.6 10 Sudoeste 27 Sudoeste 0 -- -- 86
2018-01-07 23:00:00 4.2 12 Sudoeste 17 Sudoeste 0 -- -- 84
2018-01-07 22:00:00 3 11 Oeste 15 Oeste 0 -- -- 84
2018-01-07 21:00:00 2.5 7 Oeste 14 Oeste 0 -- -- 90
2018-01-07 20:00:00 3.1 3 Oeste 10 Oeste 0 -- -- 90
2018-01-07 19:00:00 4.8 8 Oeste 12 Oeste 0 -- -- 86
2018-01-07 18:00:00 6.4 8 Oeste 11 Oeste 0 -- -- 88
2018-01-07 17:00:00 8.1 4 Sudoeste 6 Oeste 0 -- -- 87
2018-01-07 16:00:00 8.6 0 Calma 9 Este 0 -- -- 84
2018-01-07 15:00:00 8.7 2 Sudeste 10 Este 0 -- -- 83
2018-01-07 14:00:00 8.6 6 Este 16 Este 0 -- -- 84
2018-01-07 13:00:00 8.6 8 Sudeste 24 Sudeste 0 -- -- 83
2018-01-07 12:00:00 8.4 10 Este 23 Sudeste 0 -- -- 86
2018-01-07 11:00:00 8.1 8 Este 18 Este 0 -- -- 90
2018-01-07 10:00:00 7.8 6 Este 20 Sudeste 0 -- -- 92
2018-01-07 09:00:00 8.1 9 Este 30 Este 0 -- -- 95
2018-01-07 08:00:00 8.5 11 Sudeste 25 Sudeste 0 -- -- 96
2018-01-07 07:00:00 8.4 10 Este 23 Este 0 -- -- 96
2018-01-07 06:00:00 8.9 9 Este 31 Este 0 -- -- 96
2018-01-07 05:00:00 9.1 14 Este 35 Nordeste 0 -- -- 98
2018-01-07 04:00:00 8.3 8 Este 21 Este 1.4 -- -- 98
2018-01-07 03:00:00 7.4 9 Este 59 Sudeste 7.4 -- -- 94
2018-01-07 02:00:00 10.7 14 Este 36 Sudeste 0.4 -- -- 96
2018-01-07 01:00:00 11 19 Este 37 Este 1.8 -- -- 97
2018-01-07 00:00:00 11 12 Sudeste 35 Este 2.4 -- -- 95
2018-01-06 23:00:00 11.7 13 Sudeste 45 Este 0.4 -- -- 93
2018-01-06 22:00:00 12.1 19 Este 45 Sudeste 0 -- -- 88
2018-01-06 21:00:00 11.8 21 Este 48 Este 0 -- -- 87
2018-01-06 20:00:00 11.6 18 Este 45 Este 0 -- -- 88
2018-01-06 19:00:00 11.4 16 Este 32 Este 0 -- -- 85
2018-01-06 18:00:00 11.3 13 Este 30 Este 0 -- -- 82
2018-01-06 17:00:00 11.7 12 Este 32 Este 0 -- -- 79
2018-01-06 16:00:00 11.8 9 Este 30 Este 0 -- -- 84
2018-01-06 15:00:00 12 10 Este 26 Este 0 -- -- 84
2018-01-06 14:00:00 12.1 12 Este 28 Este 0 -- -- 83
2018-01-06 13:00:00 11.8 11 Este 25 Sudeste 0 -- -- 84
2018-01-06 12:00:00 11.5 9 Este 21 Este 0 -- -- 85
2018-01-06 11:00:00 10 6 Este 15 Nordeste 0 -- -- 88
2018-01-06 10:00:00 8.1 3 Este 6 Este 0 -- -- 96
2018-01-06 09:00:00 6.6 3 Nordeste 8 Sudoeste 0 -- -- 98
2018-01-06 08:00:00 5 2 Noroeste 7 Noroeste 0 -- -- 95
2018-01-06 07:00:00 5.3 4 Noroeste 9 Noroeste 0 -- -- 94
2018-01-06 06:00:00 5.5 7 Oeste 10 Oeste 0 -- -- 91
2018-01-06 05:00:00 4.8 2 Nordeste 5 Nordeste 0 -- -- 87
2018-01-06 04:00:00 4.9 3 Noroeste 8 Oeste 0 -- -- 85
2018-01-06 03:00:00 4.7 2 Noroeste 9 Oeste 0 -- -- 85
2018-01-06 02:00:00 6.2 7 Oeste 13 Noroeste 0 -- -- 79
2018-01-06 01:00:00 5.8 5 Oeste 12 Oeste 0 -- -- 81
2018-01-06 00:00:00 6.6 7 Oeste 13 Oeste 0 -- -- 77
2018-01-05 23:00:00 6.3 0 Calma 12 Oeste 0 -- -- 77
2018-01-05 22:00:00 6.7 6 Oeste 10 Sudoeste 0 -- -- 74
2018-01-05 21:00:00 7.7 4 Noroeste 10 Oeste 0 -- -- 69
2018-01-05 20:00:00 10.3 3 Norte 17 Noroeste 0 -- -- 61
2018-01-05 19:00:00 11.7 10 Oeste 16 Oeste 0 -- -- 57
2018-01-05 18:00:00 13 10 Oeste 20 Oeste 0 -- -- 54
2018-01-05 17:00:00 15 14 Oeste 36 Oeste 0 -- -- 48
2018-01-05 16:00:00 16 19 Oeste 42 Oeste 0 -- -- 46
2018-01-05 15:00:00 16.1 22 Oeste 58 Oeste 0 -- -- 45
2018-01-05 14:00:00 16.2 24 Oeste 48 Oeste 0 -- -- 45
2018-01-05 13:00:00 16 25 Oeste 67 Oeste 0 -- -- 48
2018-01-05 12:00:00 15.3 24 Oeste 50 Oeste 0 -- -- 51
2018-01-05 11:00:00 14.1 34 Oeste 54 Oeste 0 -- -- 55
2018-01-05 10:00:00 13 26 Oeste 41 Oeste 0 -- -- 60
2018-01-05 09:00:00 11.2 19 Oeste 34 Oeste 0 -- -- 67
2018-01-05 08:00:00 11 16 Oeste 36 Oeste 0 -- -- 68
2018-01-05 07:00:00 11.2 20 Oeste 45 Oeste 0 -- -- 67
2018-01-05 06:00:00 11.2 22 Oeste 51 Oeste 0 -- -- 67
2018-01-05 05:00:00 11.6 27 Oeste 48 Oeste 0 -- -- 66
2018-01-05 04:00:00 12.1 26 Oeste 50 Oeste 0 -- -- 65
2018-01-05 03:00:00 12.8 28 Oeste 45 Oeste 0 -- -- 61
2018-01-05 02:00:00 13.5 27 Oeste 50 Oeste 0 -- -- 59
2018-01-05 01:00:00 13.7 27 Oeste 46 Oeste 0 -- -- 57
2018-01-05 00:00:00 13.4 26 Oeste 57 Oeste 0 -- -- 58
2018-01-04 23:00:00 13.8 28 Oeste 59 Oeste 0 -- -- 57
2018-01-04 22:00:00 14.2 33 Oeste 63 Oeste 0 -- -- 55
2018-01-04 21:00:00 14.6 28 Oeste 51 Oeste 0 -- -- 55
2018-01-04 20:00:00 15.1 21 Oeste 43 Noroeste 0 -- -- 54
2018-01-04 19:00:00 15.5 20 Oeste 36 Oeste 0 -- -- 53
2018-01-04 18:00:00 16 18 Oeste 44 Oeste 0 -- -- 56
2018-01-04 17:00:00 17.1 24 Oeste 45 Oeste 0 -- -- 54
2018-01-04 16:00:00 17.8 27 Oeste 53 Sudoeste 0 -- -- 53
2018-01-04 15:00:00 18.5 24 Oeste 50 Oeste 0 -- -- 52
2018-01-04 14:00:00 18.3 30 Oeste 62 Oeste 0 -- -- 53
2018-01-04 13:00:00 17.8 30 Oeste 55 Oeste 0 -- -- 56
2018-01-04 12:00:00 16.6 33 Oeste 59 Oeste 0 -- -- 61
2018-01-04 11:00:00 16.3 32 Oeste 65 Oeste 0 -- -- 64
2018-01-04 10:00:00 15.5 28 Oeste 56 Oeste 0 -- -- 68
2018-01-04 09:00:00 14.2 30 Oeste 54 Oeste 0 -- -- 73
2018-01-04 08:00:00 14.3 27 Oeste 50 Oeste 0 -- -- 72
2018-01-04 07:00:00 14.2 28 Oeste 51 Oeste 0 -- -- 73
2018-01-04 06:00:00 13.9 27 Oeste 57 Sudoeste 0 -- -- 75
2018-01-04 05:00:00 14 26 Oeste 51 Oeste 0 -- -- 74
2018-01-04 04:00:00 14.4 26 Oeste 48 Oeste 0 -- -- 73
2018-01-04 03:00:00 14.2 20 Oeste 45 Oeste 0 -- -- 74
2018-01-04 02:00:00 14.3 21 Oeste 55 Oeste 0 -- -- 74
2018-01-04 01:00:00 14.7 20 Oeste 37 Oeste 0 -- -- 73
2018-01-04 00:00:00 14.7 19 Oeste 42 Oeste 0 -- -- 73
2018-01-03 23:00:00 14.9 17 Sudoeste 39 Sudoeste 0 -- -- 74
2018-01-03 22:00:00 15.4 20 Sudoeste 52 Sudoeste 0 -- -- 73
2018-01-03 21:00:00 16.2 17 Sudoeste 49 Sudoeste 0 -- -- 69
2018-01-03 20:00:00 16.3 23 Sudoeste 50 Sudoeste 0 -- -- 68
2018-01-03 19:00:00 16.3 21 Sudoeste 46 Sudoeste 0 -- -- 67
2018-01-03 18:00:00 16.8 19 Oeste 48 Oeste 0 -- -- 64
2018-01-03 17:00:00 17.7 22 Oeste 66 Sudoeste 0 -- -- 61
2018-01-03 16:00:00 18.5 28 Sudoeste 58 Sudoeste 0 -- -- 58
2018-01-03 15:00:00 18.7 23 Oeste 60 Oeste 0 -- -- 58
2018-01-03 14:00:00 17.7 23 Sudoeste 46 Sudoeste 0 -- -- 61
2018-01-03 13:00:00 17.1 23 Sudoeste 43 Oeste 0 -- -- 64
2018-01-03 12:00:00 14.7 22 Oeste 41 Oeste 0 -- -- 72
2018-01-03 11:00:00 14 26 Oeste 45 Oeste 0 -- -- 74
2018-01-03 10:00:00 13.6 26 Oeste 42 Oeste 0 -- -- 75
2018-01-03 09:00:00 13.5 25 Oeste 49 Oeste 0 -- -- 75
2018-01-03 08:00:00 13.6 28 Oeste 52 Oeste 0 -- -- 73
2018-01-03 07:00:00 13.4 24 Oeste 53 Oeste 0 -- -- 72
2018-01-03 06:00:00 13.6 22 Oeste 42 Oeste 0 -- -- 70
2018-01-03 05:00:00 13.2 23 Oeste 44 Oeste 0 -- -- 70
2018-01-03 04:00:00 13 24 Oeste 42 Oeste 0 -- -- 72
2018-01-03 03:00:00 13.2 24 Oeste 42 Oeste 0 -- -- 71
2018-01-03 02:00:00 13.2 24 Oeste 45 Oeste 0 -- -- 70
2018-01-03 01:00:00 13.2 27 Oeste 46 Noroeste 0 -- -- 69
2018-01-03 00:00:00 12.9 29 Oeste 48 Oeste 0 -- -- 72
2018-01-02 23:00:00 12.9 28 Oeste 58 Oeste 0 -- -- 70
2018-01-02 22:00:00 13.2 26 Oeste 48 Oeste 0 -- -- 68
2018-01-02 21:00:00 13.2 28 Oeste 54 Noroeste 0 -- -- 67
2018-01-02 20:00:00 13.4 28 Oeste 50 Oeste 0 -- -- 65
2018-01-02 19:00:00 13.7 24 Oeste 48 Oeste 0 -- -- 64
2018-01-02 18:00:00 14.4 19 Oeste 42 Oeste 0 -- -- 61
2018-01-02 17:00:00 15.3 20 Oeste 43 Oeste 0 -- -- 58
2018-01-02 16:00:00 15.5 19 Oeste 45 Oeste 0 -- -- 57
2018-01-02 15:00:00 15 23 Oeste 41 Sudoeste 0 -- -- 57
2018-01-02 14:00:00 14.7 21 Sudoeste 42 Sudoeste 0 -- -- 57
2018-01-02 13:00:00 13.9 17 Sudoeste 44 Sudoeste 0 -- -- 60
2018-01-02 12:00:00 12 25 Sudoeste 49 Sudoeste 0 -- -- 67
2018-01-02 11:00:00 11.8 22 Oeste 48 Oeste 0 -- -- 70
2018-01-02 10:00:00 10.7 23 Sudoeste 43 Sudoeste 0 -- -- 76
2018-01-02 09:00:00 10.6 19 Oeste 49 Sudoeste 0 -- -- 77
2018-01-02 08:00:00 10.9 23 Sudoeste 48 Sudoeste 0 -- -- 75
2018-01-02 07:00:00 10.9 24 Sudoeste 48 Sudoeste 0 -- -- 68
2018-01-02 06:00:00 10.8 21 Sudoeste 51 Sudoeste 0 -- -- 65
2018-01-02 05:00:00 11 17 Sudoeste 46 Sudoeste 0 -- -- 62
2018-01-02 04:00:00 11.7 22 Oeste 71 Sudoeste 0 -- -- 58
2018-01-02 03:00:00 12.9 36 Oeste 72 Oeste 0 -- -- 55
2018-01-02 02:00:00 12.8 39 Oeste 77 Oeste 0 -- -- 54
2018-01-02 01:00:00 12.5 37 Oeste 67 Oeste 0 -- -- 59
2018-01-02 00:00:00 11.1 33 Oeste 73 Oeste 0 -- -- 72
2018-01-01 23:00:00 11.6 28 Oeste 74 Oeste 0 -- -- 68
2018-01-01 22:00:00 12.5 31 Oeste 70 Oeste 0 -- -- 60
2018-01-01 21:00:00 12.2 25 Oeste 55 Oeste 0 -- -- 57
2018-01-01 20:00:00 11.9 22 Oeste 53 Oeste 0 -- -- 54
2018-01-01 19:00:00 12.6 20 Oeste 50 Oeste 0 -- -- 49
2018-01-01 18:00:00 12.3 20 Oeste 50 Oeste 0 -- -- 47
2018-01-01 17:00:00 12.6 17 Oeste 37 Noroeste 0 -- -- 43
2018-01-01 16:00:00 12.2 16 Oeste 41 Oeste 0 -- -- 44
2018-01-01 15:00:00 13.1 22 Oeste 48 Oeste 0 -- -- 40
2018-01-01 14:00:00 12.5 31 Oeste 56 Oeste 0 -- -- 41
2018-01-01 13:00:00 12.4 28 Oeste 49 Oeste 0 -- -- 40
2018-01-01 12:00:00 10.8 29 Oeste 58 Oeste 0 -- -- 50
2018-01-01 11:00:00 9.5 33 Oeste 55 Oeste 0 -- -- 52
2018-01-01 10:00:00 7.3 27 Oeste 50 Oeste 0 -- -- 59
2018-01-01 09:00:00 6.6 32 Oeste 53 Oeste 0 -- -- 60
2018-01-01 08:00:00 5.7 22 Oeste 37 Oeste 0 -- -- 64
2018-01-01 07:00:00 5.8 17 Oeste 35 Sudoeste 0 -- -- 68
2018-01-01 06:00:00 6.4 15 Sudoeste 49 Oeste 0 -- -- 66
2018-01-01 05:00:00 7.2 15 Oeste 49 Oeste 0 -- -- 62
2018-01-01 04:00:00 8.6 23 Oeste 61 Oeste 0 -- -- 54
2018-01-01 03:00:00 8.7 28 Oeste 75 Oeste 0 -- -- 54
2018-01-01 02:00:00 8.3 25 Oeste 68 Sudoeste 0 -- -- 58
2018-01-01 01:00:00 8.8 34 Oeste 73 Oeste 0 -- -- 56
2018-01-01 00:00:00 9.7 35 Oeste 75 Oeste 0 -- -- 53
2017-12-31 23:00:00 10.9 28 Oeste 66 Oeste 0 -- -- 62
2017-12-31 22:00:00 12.7 30 Oeste 55 Oeste 0 -- -- 61
2017-12-31 21:00:00 12.7 23 Oeste 56 Oeste 0 -- -- 59
2017-12-31 20:00:00 12.9 20 Oeste 47 Oeste 0 -- -- 58
2017-12-31 19:00:00 13.2 27 Oeste 62 Oeste 0 -- -- 58
2017-12-31 18:00:00 13.3 26 Oeste 52 Oeste 0 -- -- 57
2017-12-31 17:00:00 13.8 27 Oeste 49 Noroeste 0 -- -- 54
2017-12-31 16:00:00 14 25 Oeste 47 Noroeste 0 -- -- 52
2017-12-31 15:00:00 14.9 13 Oeste 33 Oeste 0 -- -- 54
2017-12-31 14:00:00 16.1 9 Oeste 31 Noroeste 0 -- -- 55
2017-12-31 13:00:00 14.6 17 Oeste 35 Noroeste 0 -- -- 58
2017-12-31 12:00:00 15.8 9 Oeste 19 Oeste 0 -- -- 55
2017-12-31 11:00:00 14.4 5 Oeste 15 Oeste 0 -- -- 60
2017-12-31 10:00:00 12.3 6 Sudoeste 14 Sudoeste 0 -- -- 68
2017-12-31 09:00:00 9.8 9 Oeste 14 Oeste 0 -- -- 76
2017-12-31 08:00:00 8.2 9 Oeste 16 Sudoeste 0 -- -- 81
2017-12-31 07:00:00 9.4 10 Oeste 21 Oeste 0 -- -- 78
2017-12-31 06:00:00 9.9 8 Oeste 20 Sudoeste 0 -- -- 75
2017-12-31 05:00:00 9.8 10 Sudoeste 15 Oeste 0 -- -- 75
2017-12-31 04:00:00 12.3 9 Oeste 31 Noroeste 0 -- -- 66
2017-12-31 03:00:00 12.2 17 Oeste 35 Oeste 0 -- -- 67
2017-12-31 02:00:00 11.7 10 Oeste 36 Oeste 0 -- -- 68
2017-12-31 01:00:00 12.3 17 Oeste 36 Oeste 0 -- -- 66